Time;durP1;ratioP1;P1;durP2;ratioP2;P2;SDS_P1;SDS_P2;PMS_P1;PMS_P2;Temp;Humidity;BMP_temperature;BMP_pressure;BME280_temperature;BME280_humidity;BME280_pressure;Samples;Min_cycle;Max_cycle;Signal;HPM_P1;HPM_P2
2021/09/17 00:02:12;;;;;;;4.10;1.70;;;17.80;86.90;;;;;;5094466;28;20040;-75
2021/09/17 00:04:38;;;;;;;4.47;1.70;;;17.80;86.50;;;;;;5111602;28;20047;-76
2021/09/17 00:07:04;;;;;;;6.72;1.25;;;17.80;86.80;;;;;;5112663;28;20036;-76
2021/09/17 00:09:30;;;;;;;8.68;1.58;;;17.90;86.40;;;;;;5112550;28;20034;-77
2021/09/17 00:11:56;;;;;;;;;;;17.90;86.30;;;;;;5113020;28;20092;-74
2021/09/17 00:14:21;;;;;;;7.05;1.40;;;17.90;86.30;;;;;;5094148;28;19907;-76
2021/09/17 00:16:47;;;;;;;3.63;1.83;;;17.90;86.10;;;;;;5094154;28;20071;-75
2021/09/17 00:19:13;;;;;;;6.95;1.38;;;17.90;86.20;;;;;;5060713;28;20036;-76
2021/09/17 00:21:39;;;;;;;7.57;1.83;;;17.90;86.20;;;;;;5112402;28;20027;-75
2021/09/17 00:24:05;;;;;;;6.03;1.48;;;17.80;86.20;;;;;;5112224;28;20042;-77
2021/09/17 00:26:30;;;;;;;5.80;1.58;;;17.80;86.30;;;;;;5093904;28;20030;-77
2021/09/17 00:28:56;;;;;;;9.40;1.50;;;17.80;86.40;;;;;;5112270;28;20038;-75
2021/09/17 00:31:22;;;;;;;7.68;1.60;;;17.80;86.40;;;;;;5094135;28;20359;-75
2021/09/17 00:33:48;;;;;;;;;;;17.90;86.30;;;;;;5112642;28;20474;-75
2021/09/17 00:36:14;;;;;;;4.28;1.40;;;17.80;86.30;;;;;;5112218;28;20040;-76
2021/09/17 00:38:40;;;;;;;8.95;1.35;;;17.90;86.20;;;;;;5112117;28;20500;-75
2021/09/17 00:41:06;;;;;;;3.72;1.10;;;17.90;86.20;;;;;;5112109;28;20035;-77
2021/09/17 00:43:32;;;;;;;6.45;1.50;;;17.90;86.30;;;;;;5111985;28;20035;-75
2021/09/17 00:45:58;;;;;;;4.32;1.10;;;17.90;86.40;;;;;;5112003;28;20072;-75
2021/09/17 00:48:23;;;;;;;8.05;1.60;;;17.90;86.30;;;;;;5077002;28;20390;-76
2021/09/17 00:50:49;;;;;;;9.10;1.35;;;18.00;86.40;;;;;;5093521;28;20073;-77
2021/09/17 00:53:15;;;;;;;8.02;1.55;;;18.00;86.40;;;;;;5093618;28;20551;-75
2021/09/17 00:55:41;;;;;;;;;;;18.00;86.40;;;;;;5112348;28;20023;-75
2021/09/17 00:58:07;;;;;;;4.65;1.25;;;18.00;86.40;;;;;;5111857;28;20376;-75
2021/09/17 01:00:33;;;;;;;4.22;1.40;;;18.00;86.40;;;;;;5111954;28;20393;-75
2021/09/17 01:02:59;;;;;;;7.65;1.48;;;18.00;86.50;;;;;;5076465;28;20039;-76
2021/09/17 01:05:25;;;;;;;7.25;1.17;;;18.00;86.60;;;;;;5111631;28;20043;-75
2021/09/17 01:07:51;;;;;;;4.30;1.33;;;18.00;86.70;;;;;;5111704;28;20027;-75
2021/09/17 01:10:16;;;;;;;6.35;1.50;;;18.00;87.00;;;;;;5111802;28;20028;-75
2021/09/17 01:12:43;;;;;;;4.88;1.60;;;18.00;87.10;;;;;;5111547;28;20478;-76
2021/09/17 01:15:10;;;;;;;7.47;1.33;;;18.00;87.30;;;;;;5111356;28;20054;-75
2021/09/17 01:17:39;;;;;;;4.03;1.20;;;18.00;87.40;;;;;;5111605;28;20031;-74
2021/09/17 01:20:08;;;;;;;8.77;1.30;;;18.10;87.50;;;;;;5111556;28;20038;-75
2021/09/17 01:22:34;;;;;;;7.53;1.70;;;18.10;87.60;;;;;;5111395;28;20023;-77
2021/09/17 01:25:00;;;;;;;9.82;1.75;;;18.10;87.70;;;;;;5093114;28;20039;-76
2021/09/17 01:27:25;;;;;;;7.40;1.75;;;18.10;87.80;;;;;;5111455;28;20036;-77
2021/09/17 01:29:52;;;;;;;8.40;1.67;;;18.20;87.90;;;;;;5111423;28;20149;-75
2021/09/17 01:32:19;;;;;;;6.70;1.38;;;18.20;88.20;;;;;;5111304;28;20015;-77
2021/09/17 01:34:45;;;;;;;7.32;1.80;;;18.10;88.40;;;;;;5076582;28;20027;-76
2021/09/17 01:37:11;;;;;;;9.90;1.60;;;18.20;88.70;;;;;;5092961;28;20030;-74
2021/09/17 01:39:37;;;;;;;9.63;1.63;;;18.20;88.80;;;;;;5111362;28;20474;-77
2021/09/17 01:42:04;;;;;;;11.55;2.17;;;18.20;89.00;;;;;;5111449;28;20031;-76
2021/09/17 01:44:35;;;;;;;4.63;1.42;;;18.20;89.10;;;;;;5059390;28;20038;-76
2021/09/17 01:47:01;;;;;;;10.85;2.10;;;18.20;89.30;;;;;;5111392;28;20026;-76
2021/09/17 01:49:27;;;;;;;7.97;2.00;;;18.30;89.30;;;;;;5111245;28;20478;-74
2021/09/17 01:51:53;;;;;;;8.13;1.40;;;18.30;89.30;;;;;;5111224;28;20036;-76
2021/09/17 01:54:19;;;;;;;;;;;18.30;89.40;;;;;;5111642;28;20024;-75
2021/09/17 01:56:44;;;;;;;10.98;1.77;;;18.30;89.40;;;;;;5111237;28;19968;-75
2021/09/17 01:59:10;;;;;;;9.10;1.67;;;18.30;89.40;;;;;;5092994;28;20058;-75
2021/09/17 02:01:36;;;;;;;5.63;1.30;;;18.20;89.60;;;;;;5111213;28;20397;-75
2021/09/17 02:04:02;;;;;;;7.45;1.92;;;18.20;89.80;;;;;;5110819;28;20051;-75
2021/09/17 02:06:28;;;;;;;6.07;1.60;;;18.20;90.00;;;;;;5111182;28;20101;-75
2021/09/17 02:08:55;;;;;;;6.25;2.20;;;18.10;90.00;;;;;;5092888;28;20040;-77
2021/09/17 02:11:21;;;;;;;5.47;1.33;;;18.10;90.10;;;;;;5092823;28;20461;-74
2021/09/17 02:13:47;;;;;;;5.15;1.35;;;18.10;90.20;;;;;;5110986;28;20115;-77
2021/09/17 02:16:13;;;;;;;;;;;18.10;90.40;;;;;;5093232;28;20040;-75
2021/09/17 02:18:39;;;;;;;6.90;1.48;;;18.10;90.30;;;;;;5092763;28;19934;-75
2021/09/17 02:21:05;;;;;;;6.88;1.77;;;18.10;90.30;;;;;;5111092;28;20031;-76
2021/09/17 02:23:30;;;;;;;6.30;1.50;;;18.10;90.40;;;;;;5092601;28;20032;-76
2021/09/17 02:25:56;;;;;;;8.35;1.60;;;18.00;90.50;;;;;;5110982;28;20028;-75
2021/09/17 02:28:22;;;;;;;3.88;1.15;;;18.00;90.60;;;;;;5113878;28;20028;-75
2021/09/17 02:30:49;;;;;;;5.80;1.10;;;17.90;90.70;;;;;;5114557;28;20027;-75
2021/09/17 02:33:14;;;;;;;5.38;0.95;;;17.90;90.90;;;;;;5114474;28;20379;-77
2021/09/17 02:35:41;;;;;;;5.72;1.08;;;17.80;91.00;;;;;;5114431;28;20035;-75
2021/09/17 02:38:07;;;;;;;7.38;1.55;;;17.80;91.10;;;;;;5114408;28;20035;-76
2021/09/17 02:40:32;;;;;;;5.78;1.20;;;17.80;91.20;;;;;;5114370;28;20028;-77
2021/09/17 02:42:59;;;;;;;8.80;1.17;;;17.80;91.30;;;;;;5114231;28;20027;-75
2021/09/17 02:45:24;;;;;;;;;;;17.80;91.40;;;;;;5096399;28;20024;-76
2021/09/17 02:47:50;;;;;;;7.22;1.20;;;17.80;91.30;;;;;;5079323;28;19908;-74
2021/09/17 02:50:16;;;;;;;6.72;1.48;;;17.80;91.30;;;;;;5114170;28;20020;-76
2021/09/17 02:52:42;;;;;;;3.72;0.98;;;17.80;91.50;;;;;;5114037;28;20081;-78
2021/09/17 02:55:09;;;;;;;4.40;1.02;;;17.90;91.60;;;;;;5095745;28;20440;-76
2021/09/17 02:57:39;;;;;;;2.88;0.80;;;17.90;91.70;;;;;;5114019;28;20028;-77
2021/09/17 03:00:08;;;;;;;4.00;0.90;;;17.90;91.80;;;;;;5114432;28;20459;-77
2021/09/17 03:02:34;;;;;;;5.47;0.80;;;17.90;91.80;;;;;;5113760;28;20085;-75
2021/09/17 03:04:59;;;;;;;3.92;0.80;;;18.00;91.80;;;;;;5113728;28;20051;-75
2021/09/17 03:07:26;;;;;;;2.33;0.80;;;18.10;91.80;;;;;;5113839;28;20061;-75
2021/09/17 03:09:51;;;;;;;;;;;18.10;91.80;;;;;;5114262;28;20051;-76
2021/09/17 03:12:17;;;;;;;3.97;0.80;;;18.20;91.80;;;;;;5113705;28;19939;-77
2021/09/17 03:14:43;;;;;;;3.97;0.90;;;18.20;91.70;;;;;;5113695;28;20081;-76
2021/09/17 03:17:09;;;;;;;3.08;0.63;;;18.20;91.80;;;;;;5095300;28;20547;-77
2021/09/17 03:19:36;;;;;;;3.88;1.40;;;18.20;91.80;;;;;;5113613;28;20020;-76
2021/09/17 03:22:03;;;;;;;6.47;0.77;;;18.30;91.90;;;;;;5113655;28;20032;-77
2021/09/17 03:24:28;;;;;;;3.05;0.70;;;18.30;91.90;;;;;;5095287;28;20027;-76
2021/09/17 03:26:54;;;;;;;2.50;0.50;;;18.30;91.90;;;;;;5113515;28;20027;-76
2021/09/17 03:29:21;;;;;;;1.77;0.70;;;18.40;92.00;;;;;;5113539;28;20024;-77
2021/09/17 03:31:47;;;;;;;;;;;18.40;91.90;;;;;;5113797;28;20080;-76
2021/09/17 03:34:13;;;;;;;1.40;0.40;;;18.40;91.90;;;;;;5094971;28;20318;-75
2021/09/17 03:36:47;;;;;;;;;;;18.40;91.80;;;;;;5113764;28;20024;-77
2021/09/17 03:39:15;;;;;;;1.75;0.60;;;18.40;91.90;;;;;;5113269;28;19930;-76
2021/09/17 03:41:45;;;;;;;1.90;0.45;;;18.40;91.80;;;;;;5078179;28;20095;-75
2021/09/17 03:44:16;;;;;;;1.08;0.30;;;18.40;92.00;;;;;;5113191;28;20366;-76
2021/09/17 03:46:42;;;;;;;2.05;0.50;;;18.50;92.10;;;;;;5113156;28;20043;-75
2021/09/17 03:49:10;;;;;;;1.20;0.50;;;18.50;92.00;;;;;;5113081;28;20028;-76
2021/09/17 03:51:35;;;;;;;5.28;0.47;;;18.40;92.10;;;;;;5112958;28;20096;-74
2021/09/17 03:54:02;;;;;;;3.33;0.63;;;18.40;92.20;;;;;;5112769;28;20488;-75
2021/09/17 03:56:27;;;;;;;;;;;18.50;92.30;;;;;;5094796;28;20078;-75
2021/09/17 03:58:53;;;;;;;1.35;0.30;;;18.50;92.30;;;;;;5077230;28;19978;-75
2021/09/17 04:01:19;;;;;;;1.70;0.60;;;18.50;92.20;;;;;;5094529;28;20202;-75
2021/09/17 04:03:45;;;;;;;2.22;0.40;;;18.50;92.30;;;;;;5112528;28;20051;-76
2021/09/17 04:06:11;;;;;;;2.28;0.60;;;18.50;92.30;;;;;;5094575;28;20173;-75
2021/09/17 04:08:36;;;;;;;1.30;0.40;;;18.50;92.40;;;;;;5112675;28;20110;-77
2021/09/17 04:11:02;;;;;;;1.27;0.52;;;18.50;92.40;;;;;;5112782;28;20035;-75
2021/09/17 04:13:28;;;;;;;1.15;0.35;;;18.50;92.50;;;;;;5112651;28;20127;-75
2021/09/17 04:15:54;;;;;;;2.50;0.50;;;18.50;92.60;;;;;;5112898;28;20385;-75
2021/09/17 04:18:20;;;;;;;1.08;0.30;;;18.50;92.60;;;;;;5077449;28;20525;-74
2021/09/17 04:20:45;;;;;;;;;;;18.50;92.60;;;;;;5094879;28;20032;-77
2021/09/17 04:23:11;;;;;;;2.63;0.63;;;18.50;92.50;;;;;;5094274;28;20252;-77
2021/09/17 04:25:37;;;;;;;;;;;18.60;92.50;;;;;;5113053;28;20112;-76
2021/09/17 04:28:03;;;;;;;1.25;0.35;;;18.60;92.50;;;;;;5112721;28;19908;-75
2021/09/17 04:30:29;;;;;;;;;;;18.60;92.50;;;;;;5113052;28;20498;-76
2021/09/17 04:32:54;;;;;;;0.80;0.20;;;18.60;92.50;;;;;;5094267;28;19915;-75
2021/09/17 04:35:21;;;;;;;0.75;0.20;;;18.70;92.40;;;;;;5094012;28;20513;-74
2021/09/17 04:37:47;;;;;;;;;;;18.60;92.50;;;;;;5112721;28;20023;-75
2021/09/17 04:40:15;;;;;;;0.95;0.20;;;18.70;92.50;;;;;;5077014;28;19953;-76
2021/09/17 04:42:42;;;;;;;1.65;0.13;;;18.70;92.50;;;;;;5111914;28;20381;-76
2021/09/17 04:45:09;;;;;;;0.45;0.17;;;18.60;92.50;;;;;;5112011;28;20020;-76
2021/09/17 04:47:35;;;;;;;2.38;0.20;;;18.70;92.60;;;;;;5111901;28;20012;-75
2021/09/17 04:50:03;;;;;;;;;;;18.70;92.70;;;;;;5111977;28;20501;-76
2021/09/17 04:52:29;;;;;;;0.45;0.10;;;18.70;92.70;;;;;;5093613;28;19915;-76
2021/09/17 04:54:57;;;;;;;;;;;18.60;92.70;;;;;;5094464;28;20502;-75
2021/09/17 04:57:22;;;;;;;0.95;0.13;;;18.70;92.70;;;;;;5094247;28;19918;-74
2021/09/17 04:59:48;;;;;;;0.13;0.08;;;18.60;92.60;;;;;;5093812;28;20108;-77
2021/09/17 05:02:14;;;;;;;2.45;0.25;;;18.70;92.70;;;;;;5112094;28;20053;-76
2021/09/17 05:04:40;;;;;;;1.05;0.17;;;18.70;92.70;;;;;;5111592;28;20494;-75
2021/09/17 05:07:06;;;;;;;1.58;0.30;;;18.70;92.70;;;;;;5111595;28;20030;-77
2021/09/17 05:09:33;;;;;;;0.73;0.28;;;18.70;92.80;;;;;;5111671;28;20036;-75
2021/09/17 05:11:58;;;;;;;0.30;0.10;;;18.70;92.80;;;;;;5111795;28;20458;-75
2021/09/17 05:14:24;;;;;;;0.85;0.10;;;18.70;92.80;;;;;;5093388;28;20027;-75
2021/09/17 05:16:50;;;;;;;;;;;18.70;92.90;;;;;;5093882;28;20028;-75
2021/09/17 05:19:18;;;;;;;1.17;0.20;;;18.70;92.80;;;;;;5111606;28;19908;-75
2021/09/17 05:21:44;;;;;;;0.65;0.20;;;18.70;92.80;;;;;;5111615;28;20031;-76
2021/09/17 05:24:10;;;;;;;0.60;0.10;;;18.70;92.90;;;;;;5111280;28;20381;-75
2021/09/17 05:26:36;;;;;;;0.05;0.00;;;18.80;92.90;;;;;;5112312;28;20253;-76
2021/09/17 05:29:02;;;;;;;0.10;0.10;;;18.70;92.90;;;;;;5094111;28;20043;-76
2021/09/17 05:31:28;;;;;;;;;;;18.80;93.00;;;;;;5112160;28;20020;-75
2021/09/17 05:33:53;;;;;;;0.10;0.03;;;18.80;92.90;;;;;;5111210;28;19908;-77
2021/09/17 05:36:19;;;;;;;0.47;0.10;;;18.80;92.90;;;;;;5111287;28;20036;-76
2021/09/17 05:38:45;;;;;;;0.60;0.15;;;18.80;92.90;;;;;;5111450;28;20028;-76
2021/09/17 05:41:11;;;;;;;0.60;0.00;;;18.80;93.00;;;;;;5111623;28;20113;-74
2021/09/17 05:43:37;;;;;;;0.65;0.17;;;18.80;93.00;;;;;;5093022;28;20497;-77
2021/09/17 05:46:03;;;;;;;0.73;0.30;;;18.70;93.20;;;;;;5093649;28;20160;-75
2021/09/17 05:48:28;;;;;;;0.82;0.22;;;18.50;93.40;;;;;;5093258;28;20093;-75
2021/09/17 05:50:54;;;;;;;0.40;0.38;;;18.40;93.60;;;;;;5111483;28;20194;-75
2021/09/17 05:53:20;;;;;;;1.95;0.13;;;18.40;93.80;;;;;;5111455;28;20040;-76
2021/09/17 05:55:46;;;;;;;0.65;0.15;;;18.20;94.10;;;;;;5111480;28;20024;-75
2021/09/17 05:58:12;;;;;;;1.58;0.20;;;18.10;94.30;;;;;;5110872;28;20032;-75
2021/09/17 06:00:38;;;;;;;1.50;0.22;;;18.00;94.70;;;;;;5092953;28;20108;-76
2021/09/17 06:03:03;;;;;;;1.33;0.40;;;17.90;94.90;;;;;;5113614;28;20032;-75
2021/09/17 06:05:29;;;;;;;0.55;0.13;;;17.90;95.20;;;;;;5115346;28;20494;-75
2021/09/17 06:07:55;;;;;;;1.42;0.22;;;17.80;95.40;;;;;;5096744;28;20363;-76
2021/09/17 06:10:21;;;;;;;0.35;0.10;;;17.80;95.50;;;;;;5114855;28;20373;-76
2021/09/17 06:12:47;;;;;;;3.05;0.45;;;17.70;95.60;;;;;;5114785;28;20046;-75
2021/09/17 06:15:16;;;;;;;1.95;0.28;;;17.70;95.90;;;;;;5114937;28;20034;-75
2021/09/17 06:17:43;;;;;;;1.83;0.35;;;17.60;96.20;;;;;;5096129;28;20031;-74
2021/09/17 06:20:10;;;;;;;0.85;0.30;;;17.60;96.30;;;;;;5114432;28;20462;-76
2021/09/17 06:22:39;;;;;;;2.17;0.20;;;17.50;96.60;;;;;;5114589;28;20107;-75
2021/09/17 06:25:05;;;;;;;1.50;0.20;;;17.50;96.80;;;;;;5096185;28;20035;-76
2021/09/17 06:27:31;;;;;;;0.55;0.20;;;17.50;97.00;;;;;;5114147;28;20027;-74
2021/09/17 06:29:57;;;;;;;1.67;0.40;;;17.40;97.10;;;;;;5114436;28;20077;-74
2021/09/17 06:32:23;;;;;;;0.40;0.10;;;17.50;97.30;;;;;;5096169;28;20119;-72
2021/09/17 06:34:49;;;;;;;1.23;0.20;;;17.50;97.40;;;;;;5079339;28;20106;-77
2021/09/17 06:37:15;;;;;;;0.47;0.13;;;17.50;97.50;;;;;;5114194;28;20039;-76
2021/09/17 06:39:41;;;;;;;0.08;0.03;;;17.50;97.50;;;;;;5096027;28;20385;-76
2021/09/17 06:42:07;;;;;;;0.47;0.10;;;17.50;97.50;;;;;;5114202;28;20035;-75
2021/09/17 06:44:33;;;;;;;2.45;0.40;;;17.50;97.80;;;;;;5113991;28;20437;-75
2021/09/17 06:46:59;;;;;;;;;;;17.60;97.70;;;;;;5114557;28;20543;-76
2021/09/17 06:49:25;;;;;;;0.22;0.00;;;17.70;97.60;;;;;;5113685;28;19912;-75
2021/09/17 06:51:51;;;;;;;1.35;0.40;;;17.70;97.50;;;;;;5095136;28;20042;-76
2021/09/17 06:54:16;;;;;;;0.52;0.10;;;17.70;97.60;;;;;;5113780;28;20035;-74
2021/09/17 06:56:42;;;;;;;0.00;0.00;;;17.80;97.70;;;;;;5078554;28;20740;-75
2021/09/17 06:59:08;;;;;;;0.35;0.10;;;17.90;97.70;;;;;;5113822;28;20035;-75
2021/09/17 07:01:34;;;;;;;0.82;0.30;;;17.90;97.80;;;;;;5095055;28;20027;-73
2021/09/17 07:04:00;;;;;;;0.00;0.00;;;17.80;97.80;;;;;;5113446;28;20331;-74
2021/09/17 07:06:25;;;;;;;0.35;0.10;;;17.90;97.90;;;;;;5113565;28;20032;-75
2021/09/17 07:08:52;;;;;;;1.73;0.30;;;17.90;97.90;;;;;;5113672;28;20042;-74
2021/09/17 07:11:18;;;;;;;0.68;0.10;;;17.90;98.10;;;;;;5113626;28;20031;-73
2021/09/17 07:13:43;;;;;;;0.95;0.25;;;17.90;98.10;;;;;;5094534;28;20031;-74
2021/09/17 07:16:09;;;;;;;0.20;0.00;;;17.90;98.10;;;;;;5113356;28;20039;-73
2021/09/17 07:18:35;;;;;;;2.05;0.17;;;18.00;98.10;;;;;;5113270;28;20482;-75
2021/09/17 07:21:02;;;;;;;0.93;0.10;;;18.00;98.10;;;;;;5095101;28;20038;-76
2021/09/17 07:23:27;;;;;;;0.95;0.30;;;18.00;98.10;;;;;;5112948;28;20304;-74
2021/09/17 07:25:53;;;;;;;0.75;0.10;;;18.00;98.10;;;;;;5113293;28;20379;-75
2021/09/17 07:28:19;;;;;;;0.15;0.00;;;18.00;98.10;;;;;;5094836;28;20088;-75
2021/09/17 07:30:45;;;;;;;0.55;0.10;;;18.10;98.10;;;;;;5113090;28;20035;-74
2021/09/17 07:33:11;;;;;;;0.52;0.13;;;18.10;98.10;;;;;;5077297;28;20035;-74
2021/09/17 07:35:36;;;;;;;0.45;0.10;;;18.10;98.10;;;;;;5112723;28;20088;-75
2021/09/17 07:38:02;;;;;;;0.68;0.17;;;18.10;98.20;;;;;;5112758;28;20667;-75
2021/09/17 07:40:30;;;;;;;0.35;0.08;;;18.20;98.20;;;;;;5112542;28;20129;-75
2021/09/17 07:42:56;;;;;;;0.10;0.00;;;18.30;98.20;;;;;;5112387;28;20074;-74
2021/09/17 07:45:24;;;;;;;0.80;0.13;;;18.30;98.20;;;;;;5112334;28;20373;-76
2021/09/17 07:47:51;;;;;;;0.10;0.10;;;18.40;98.20;;;;;;5093642;28;20405;-75
2021/09/17 07:50:17;;;;;;;0.17;0.00;;;18.40;98.10;;;;;;5112752;28;20020;-77
2021/09/17 07:52:43;;;;;;;0.38;0.15;;;18.50;98.00;;;;;;5111405;28;20024;-75
2021/09/17 07:55:10;;;;;;;0.03;0.03;;;18.50;98.00;;;;;;5093196;28;20035;-75
2021/09/17 07:57:36;;;;;;;0.20;0.08;;;18.60;98.00;;;;;;5093435;28;20023;-75
2021/09/17 08:00:03;;;;;;;;;;;18.60;97.90;;;;;;5112501;28;20074;-75
2021/09/17 08:02:29;;;;;;;0.38;0.03;;;18.60;97.90;;;;;;5111725;28;19908;-74
2021/09/17 08:04:55;;;;;;;0.20;0.10;;;18.70;97.70;;;;;;5110968;28;20501;-74
2021/09/17 08:07:21;;;;;;;2.55;0.30;;;18.70;97.70;;;;;;5111304;28;20038;-74
2021/09/17 08:09:47;;;;;;;0.30;0.20;;;18.60;97.70;;;;;;5093890;28;20020;-74
2021/09/17 08:12:12;;;;;;;2.65;0.50;;;18.60;97.80;;;;;;5112727;28;20024;-75
2021/09/17 08:14:38;;;;;;;3.88;0.52;;;18.60;97.80;;;;;;5112345;28;20078;-74
2021/09/17 08:17:04;;;;;;;0.98;0.40;;;18.70;97.90;;;;;;5112290;28;20111;-75
2021/09/17 08:19:30;;;;;;;;;;;18.70;98.00;;;;;;5094234;28;20055;-75
2021/09/17 08:21:56;;;;;;;0.38;0.20;;;18.70;98.00;;;;;;5112814;28;20324;-74
2021/09/17 08:24:21;;;;;;;0.60;0.20;;;18.70;98.00;;;;;;5093274;28;20039;-74
2021/09/17 08:26:51;;;;;;;1.27;0.40;;;18.70;98.00;;;;;;5094069;28;20340;-74
2021/09/17 08:29:17;;;;;;;3.90;0.90;;;18.70;98.20;;;;;;5112272;28;20086;-74
2021/09/17 08:31:44;;;;;;;2.35;0.90;;;18.80;98.30;;;;;;5094013;28;20032;-75
2021/09/17 08:34:10;;;;;;;1.30;0.60;;;18.80;98.30;;;;;;5111512;28;20038;-75
2021/09/17 08:36:37;;;;;;;2.00;0.68;;;18.90;98.20;;;;;;5111992;28;20035;-73
2021/09/17 08:39:05;;;;;;;1.50;0.57;;;18.90;98.40;;;;;;5093736;28;20484;-75
2021/09/17 08:41:31;;;;;;;2.30;0.40;;;18.90;98.20;;;;;;5091517;28;20031;-74
2021/09/17 08:43:57;;;;;;;;;;;18.90;98.20;;;;;;5093791;28;20043;-77
2021/09/17 08:46:23;;;;;;;1.55;0.32;;;19.00;98.20;;;;;;5076249;28;19913;-76
2021/09/17 08:48:49;;;;;;;1.38;0.30;;;19.00;98.00;;;;;;5112379;28;20030;-76
2021/09/17 08:51:16;;;;;;;0.93;0.20;;;19.00;98.00;;;;;;5112376;28;20019;-77
2021/09/17 08:53:42;;;;;;;1.35;0.30;;;19.00;98.20;;;;;;5093499;28;20034;-77
2021/09/17 08:56:10;;;;;;;;;;;19.00;98.20;;;;;;5112052;28;20027;-77
2021/09/17 08:58:36;;;;;;;1.05;0.20;;;19.00;98.20;;;;;;5112378;28;19910;-76
2021/09/17 09:01:02;;;;;;;2.42;0.50;;;19.00;98.00;;;;;;5077069;28;20389;-77
2021/09/17 09:03:32;;;;;;;;;;;18.90;98.00;;;;;;5093875;28;20039;-77
2021/09/17 09:06:12;;;;;;;0.40;0.30;;;18.90;98.00;;;;;;5111902;28;20377;-76
2021/09/17 09:08:40;;;;;;;1.77;0.70;;;18.90;98.10;;;;;;5091280;28;20204;-76
2021/09/17 09:11:16;;;;;;;3.65;1.00;;;18.80;98.20;;;;;;5111982;28;20081;-76
2021/09/17 09:14:06;;;;;;;3.30;0.77;;;18.80;98.20;;;;;;5093498;28;20028;-75
2021/09/17 09:16:47;;;;;;;2.65;0.65;;;18.80;98.30;;;;;;5112047;28;20117;-74
2021/09/17 09:19:27;;;;;;;2.97;1.00;;;18.80;98.30;;;;;;5093288;28;20039;-73
2021/09/17 09:22:14;;;;;;;2.10;0.75;;;18.80;98.40;;;;;;5111197;28;20055;-75
2021/09/17 09:24:43;;;;;;;3.65;1.17;;;18.90;98.50;;;;;;5111970;28;20087;-76
2021/09/17 09:27:18;;;;;;;3.53;1.00;;;18.90;98.40;;;;;;5090373;28;20028;-76
2021/09/17 09:29:51;;;;;;;3.72;1.20;;;18.90;98.40;;;;;;5112222;28;20050;-76
2021/09/17 09:32:37;;;;;;;2.28;0.93;;;19.00;98.50;;;;;;5091148;28;20462;-77
2021/09/17 09:35:05;;;;;;;3.08;1.15;;;19.00;98.50;;;;;;5111496;28;20036;-74
2021/09/17 09:37:35;;;;;;;3.67;0.90;;;19.00;98.40;;;;;;5115806;28;20039;-76
2021/09/17 09:40:07;;;;;;;3.00;1.00;;;19.00;98.50;;;;;;5115495;28;20068;-79
2021/09/17 09:42:39;;;;;;;3.05;0.93;;;19.00;98.30;;;;;;5115765;28;20419;-75
2021/09/17 09:45:22;;;;;;;3.92;1.02;;;19.00;98.20;;;;;;5115972;28;20450;-77
2021/09/17 09:47:58;;;;;;;2.78;1.20;;;18.90;98.20;;;;;;5111353;28;20411;-75
2021/09/17 09:50:29;;;;;;;3.63;1.23;;;18.90;98.20;;;;;;5114893;28;20050;-77
2021/09/17 09:52:58;;;;;;;3.33;1.10;;;19.00;98.40;;;;;;5115081;28;20015;-77
2021/09/17 09:55:24;;;;;;;2.55;0.93;;;19.20;98.40;;;;;;5114327;28;20446;-76
2021/09/17 09:57:50;;;;;;;3.15;1.10;;;19.40;98.20;;;;;;5115502;28;20096;-76
2021/09/17 10:00:17;;;;;;;2.38;1.05;;;19.50;98.00;;;;;;5097093;28;20115;-76
2021/09/17 10:02:44;;;;;;;3.97;1.38;;;19.70;97.90;;;;;;5096856;28;20028;-77
2021/09/17 10:05:13;;;;;;;4.80;1.13;;;19.80;97.70;;;;;;5114976;28;20165;-76
2021/09/17 10:07:39;;;;;;;4.75;2.13;;;19.80;97.40;;;;;;5115059;28;20023;-76
2021/09/17 10:10:10;;;;;;;5.65;1.60;;;19.90;97.30;;;;;;5116020;28;20099;-77
2021/09/17 10:12:38;;;;;;;4.68;1.60;;;19.90;97.30;;;;;;5098996;28;20011;-79
2021/09/17 10:15:06;;;;;;;4.93;1.90;;;19.90;97.10;;;;;;5116815;28;20027;-77
2021/09/17 10:17:34;;;;;;;3.63;1.30;;;19.90;97.20;;;;;;5116336;28;20172;-78
2021/09/17 10:20:01;;;;;;;2.90;1.25;;;20.00;97.10;;;;;;5115939;28;20027;-75
2021/09/17 10:22:32;;;;;;;4.10;1.70;;;20.10;96.90;;;;;;5115318;28;20120;-75
2021/09/17 10:25:11;;;;;;;7.75;2.10;;;20.10;96.80;;;;;;5115428;28;20378;-76
2021/09/17 10:27:47;;;;;;;9.18;3.38;;;20.30;96.60;;;;;;5115457;28;20015;-75
2021/09/17 10:30:15;;;;;;;5.15;2.40;;;20.30;96.30;;;;;;5116045;28;20015;-77
2021/09/17 10:32:51;;;;;;;7.47;2.40;;;20.30;96.10;;;;;;5115229;28;20098;-78
2021/09/17 10:35:22;;;;;;;7.32;2.85;;;20.30;96.00;;;;;;5115830;28;20104;-77
2021/09/17 10:38:05;;;;;;;7.30;3.10;;;20.30;96.10;;;;;;5115937;28;20032;-77
2021/09/17 10:40:59;;;;;;;7.55;2.97;;;20.30;96.10;;;;;;5114526;28;20414;-80
2021/09/17 10:43:43;;;;;;;9.18;4.13;;;20.10;95.80;;;;;;5094470;28;20032;-78
2021/09/17 10:46:29;;;;;;;10.80;4.30;;;20.00;95.90;;;;;;5086472;28;20106;-75
2021/09/17 10:48:58;;;;;;;8.73;3.67;;;20.00;95.90;;;;;;5095871;28;20024;-78
2021/09/17 10:51:33;;;;;;;8.45;2.97;;;20.00;96.20;;;;;;5114933;28;20016;-76
2021/09/17 10:54:12;;;;;;;8.52;3.00;;;20.10;96.20;;;;;;5114962;28;20052;-77
2021/09/17 10:56:50;;;;;;;12.00;3.60;;;20.20;95.90;;;;;;5096360;28;20028;-74
2021/09/17 10:59:21;;;;;;;7.93;2.95;;;20.20;95.80;;;;;;5114490;28;20039;-73
2021/09/17 11:01:53;;;;;;;8.63;3.20;;;20.30;95.90;;;;;;5112398;28;20031;-76
2021/09/17 11:04:34;;;;;;;11.63;5.90;;;20.40;95.90;;;;;;5114283;28;20097;-75
2021/09/17 11:07:18;;;;;;;25.38;14.25;;;20.70;95.60;;;;;;5114696;28;20029;-74
2021/09/17 11:09:51;;;;;;;12.80;5.65;;;20.80;95.50;;;;;;5114558;28;20031;-75
2021/09/17 11:12:27;;;;;;;12.27;5.35;;;20.90;95.00;;;;;;5114457;28;20107;-75
2021/09/17 11:14:57;;;;;;;11.18;5.13;;;20.80;94.80;;;;;;5113752;28;20023;-75
2021/09/17 11:17:40;;;;;;;9.80;4.55;;;20.70;94.80;;;;;;5114148;28;20547;-74
2021/09/17 11:20:09;;;;;;;13.25;4.95;;;20.60;95.10;;;;;;5111800;28;20030;-73
2021/09/17 11:23:08;;;;;;;15.82;8.65;;;20.60;95.20;;;;;;5113856;28;20043;-75
2021/09/17 11:25:39;;;;;;;12.10;4.72;;;20.60;95.10;;;;;;5074203;28;20028;-75
2021/09/17 11:28:29;;;;;;;10.90;5.32;;;20.70;95.00;;;;;;5095983;28;20385;-75
2021/09/17 11:31:15;;;;;;;27.27;11.63;;;20.70;94.80;;;;;;5095833;28;20031;-76
2021/09/17 11:33:42;;;;;;;12.43;7.00;;;20.70;95.10;;;;;;5087167;28;20027;-75
2021/09/17 11:36:08;;;;;;;;;;;20.80;95.00;;;;;;5096439;28;20043;-75
2021/09/17 11:38:33;;;;;;;12.73;5.97;;;20.90;95.00;;;;;;5096141;28;19908;-77
2021/09/17 11:40:59;;;;;;;;;;;20.90;94.80;;;;;;5115206;28;20042;-76
2021/09/17 11:43:26;;;;;;;14.77;5.45;;;20.90;94.70;;;;;;5115090;28;19903;-76
2021/09/17 11:45:54;;;;;;;14.02;5.63;;;20.90;94.70;;;;;;5114020;28;20024;-77
2021/09/17 11:48:26;;;;;;;10.30;4.82;;;21.00;94.70;;;;;;5114180;28;20020;-75
2021/09/17 11:50:54;;;;;;;10.45;4.80;;;21.00;94.50;;;;;;5096038;28;20035;-73
2021/09/17 11:53:19;;;;;;;11.40;3.78;;;21.00;94.20;;;;;;5113855;28;20736;-75
2021/09/17 11:55:45;;;;;;;;;;;21.10;94.00;;;;;;5113996;28;20012;-76
2021/09/17 11:58:11;;;;;;;12.23;4.28;;;21.10;94.10;;;;;;5113728;28;20574;-73
2021/09/17 12:00:37;;;;;;;;;;;21.20;94.00;;;;;;5095688;28;20431;-77
2021/09/17 12:03:06;;;;;;;10.25;4.15;;;21.20;93.90;;;;;;5094730;28;19910;-77
2021/09/17 12:05:36;;;;;;;13.82;5.25;;;21.30;93.70;;;;;;5094624;28;20082;-76
2021/09/17 12:08:02;;;;;;;18.65;5.18;;;21.30;93.60;;;;;;5113403;28;20032;-77
2021/09/17 12:10:29;;;;;;;11.73;5.15;;;21.20;93.50;;;;;;5113885;28;20031;-77
2021/09/17 12:13:00;;;;;;;10.98;3.85;;;21.20;93.60;;;;;;5094889;28;20099;-75
2021/09/17 12:15:29;;;;;;;9.85;4.00;;;21.20;93.60;;;;;;5112811;28;20022;-73
2021/09/17 12:18:08;;;;;;;12.85;4.00;;;21.20;93.70;;;;;;5113052;28;20026;-76
2021/09/17 12:20:49;;;;;;;8.30;3.47;;;21.20;93.70;;;;;;5093193;28;20479;-76
2021/09/17 12:23:21;;;;;;;10.10;4.22;;;21.40;93.60;;;;;;5084379;28;20039;-76
2021/09/17 12:25:49;;;;;;;16.25;5.20;;;21.40;93.40;;;;;;5113045;28;20060;-76
2021/09/17 12:28:23;;;;;;;15.07;6.43;;;21.50;93.40;;;;;;5112758;28;20030;-74
2021/09/17 12:30:50;;;;;;;16.58;6.50;;;21.50;93.50;;;;;;5113152;28;20035;-77
2021/09/17 12:33:25;;;;;;;13.82;4.95;;;21.60;93.50;;;;;;5113156;28;20024;-76
2021/09/17 12:35:56;;;;;;;13.00;3.70;;;21.80;93.70;;;;;;5113250;28;20019;-77
2021/09/17 12:38:24;;;;;;;9.18;4.50;;;22.00;93.40;;;;;;5113712;28;20031;-77
2021/09/17 12:40:55;;;;;;;10.98;3.58;;;22.00;93.40;;;;;;5094709;28;20424;-76
2021/09/17 12:43:27;;;;;;;10.02;4.03;;;22.10;93.10;;;;;;5094644;28;20023;-75
2021/09/17 12:46:09;;;;;;;9.20;4.00;;;22.00;92.80;;;;;;5112917;28;20019;-74
2021/09/17 12:48:37;;;;;;;13.15;4.20;;;22.00;92.60;;;;;;5113139;28;20016;-76
2021/09/17 12:51:04;;;;;;;9.98;3.30;;;21.90;92.80;;;;;;5113540;28;20448;-76
2021/09/17 12:53:36;;;;;;;9.13;4.03;;;21.80;92.80;;;;;;5094969;28;20024;-76
2021/09/17 12:56:08;;;;;;;11.77;4.07;;;21.80;92.60;;;;;;5113574;28;20098;-78
2021/09/17 12:58:35;;;;;;;8.52;3.80;;;21.70;92.80;;;;;;5113799;28;20068;-78